Time;durP1;ratioP1;P1;durP2;ratioP2;P2;SDS_P1;SDS_P2;PMS_P1;PMS_P2;Temp;Humidity;BMP_temperature;BMP_pressure;BME280_temperature;BME280_humidity;BME280_pressure;Samples;Min_cycle;Max_cycle;Signal;HPM_P1;HPM_P2
2022/08/10 00:01:38;;;;;;;5.03;4.63;;;19.60;99.90;;;;;;5072439;28;20609;-64
2022/08/10 00:04:04;;;;;;;5.50;4.77;;;19.50;99.90;;;;;;5055780;28;20215;-65
2022/08/10 00:06:30;;;;;;;4.80;4.50;;;19.50;99.90;;;;;;5053974;28;20238;-65
2022/08/10 00:08:56;;;;;;;4.43;4.13;;;19.40;99.90;;;;;;5059752;28;20192;-64
2022/08/10 00:11:22;;;;;;;6.13;5.63;;;19.40;99.90;;;;;;5068366;28;20184;-65
2022/08/10 00:13:48;;;;;;;7.20;4.60;;;19.40;99.90;;;;;;5052522;28;20174;-64
2022/08/10 00:16:14;;;;;;;5.23;4.80;;;19.40;99.90;;;;;;5060612;28;20268;-65
2022/08/10 00:18:39;;;;;;;5.63;5.20;;;19.30;99.90;;;;;;5065304;28;20558;-64
2022/08/10 00:21:08;;;;;;;7.03;4.53;;;19.30;99.90;;;;;;5064766;28;20179;-64
2022/08/10 00:23:35;;;;;;;4.80;4.33;;;19.30;99.90;;;;;;5049453;28;20190;-64
2022/08/10 00:26:01;;;;;;;5.40;4.77;;;19.30;99.90;;;;;;5063832;28;20217;-65
2022/08/10 00:28:26;;;;;;;6.07;4.60;;;19.30;99.90;;;;;;5070944;28;20257;-64
2022/08/10 00:30:53;;;;;;;4.90;4.50;;;19.30;99.90;;;;;;5063964;28;20174;-64
2022/08/10 00:33:19;;;;;;;4.93;4.53;;;19.30;99.90;;;;;;5063286;28;20179;-65
2022/08/10 00:35:45;;;;;;;5.70;5.30;;;19.20;99.90;;;;;;5056481;28;20211;-65
2022/08/10 00:38:11;;;;;;;4.97;4.57;;;19.20;99.90;;;;;;5072143;28;20196;-64
2022/08/10 00:40:37;;;;;;;5.03;4.70;;;19.10;99.90;;;;;;5055588;28;20866;-65
2022/08/10 00:43:03;;;;;;;6.50;5.87;;;19.10;99.90;;;;;;5057168;28;20183;-65
2022/08/10 00:45:28;;;;;;;6.17;5.63;;;19.10;99.90;;;;;;5061229;28;20276;-65
2022/08/10 00:47:54;;;;;;;7.43;5.07;;;19.00;99.90;;;;;;5066359;28;20206;-65
2022/08/10 00:50:20;;;;;;;5.33;4.83;;;19.00;99.90;;;;;;5052452;28;20581;-64
2022/08/10 00:52:46;;;;;;;5.80;4.43;;;19.00;99.90;;;;;;5067813;28;20187;-63
2022/08/10 00:55:12;;;;;;;5.03;4.53;;;18.90;99.90;;;;;;5066490;28;20186;-65
2022/08/10 00:57:38;;;;;;;5.30;4.90;;;19.00;99.90;;;;;;5060419;28;20570;-65
2022/08/10 01:00:06;;;;;;;5.50;5.10;;;18.90;99.90;;;;;;5058082;28;20206;-65
2022/08/10 01:02:32;;;;;;;4.93;4.33;;;18.90;99.90;;;;;;5069520;28;20184;-64
2022/08/10 01:05:07;;;;;;;6.40;5.80;;;18.90;99.90;;;;;;5051629;28;20808;-64
2022/08/10 01:07:58;;;;;;;5.67;5.20;;;18.80;99.90;;;;;;5069084;28;20262;-65
2022/08/10 01:10:58;;;;;;;7.27;4.47;;;18.80;99.90;;;;;;5054893;28;20183;-65
2022/08/10 01:13:46;;;;;;;7.50;4.83;;;18.80;99.90;;;;;;5061898;28;20217;-65
2022/08/10 01:16:35;;;;;;;5.10;4.73;;;18.80;99.90;;;;;;5061868;28;20255;-65
2022/08/10 01:19:21;;;;;;;6.27;5.67;;;18.70;99.90;;;;;;5058206;28;20182;-65
2022/08/10 01:22:22;;;;;;;5.23;4.83;;;18.70;99.90;;;;;;5059736;28;20186;-65
2022/08/10 01:25:10;;;;;;;5.53;4.93;;;18.60;99.90;;;;;;5061937;28;20219;-65
2022/08/10 01:27:44;;;;;;;5.33;4.83;;;18.60;99.90;;;;;;5061109;28;20287;-64
2022/08/10 01:30:12;;;;;;;5.50;4.93;;;18.60;99.90;;;;;;5057390;28;20178;-64
2022/08/10 01:33:00;;;;;;;6.37;5.77;;;18.50;99.90;;;;;;5069542;28;20189;-64
2022/08/10 01:35:34;;;;;;;5.17;4.77;;;18.50;99.90;;;;;;5066700;28;20174;-65
2022/08/10 01:38:10;;;;;;;4.87;4.47;;;18.40;99.90;;;;;;5050087;28;20187;-64
2022/08/10 01:40:53;;;;;;;6.33;5.87;;;18.40;99.90;;;;;;5067857;28;20693;-65
2022/08/10 01:43:20;;;;;;;6.27;5.77;;;18.40;99.90;;;;;;5065950;28;20548;-66
2022/08/10 01:45:51;;;;;;;6.60;6.00;;;18.40;99.90;;;;;;5068808;28;20202;-64
2022/08/10 01:48:30;;;;;;;5.90;5.40;;;18.40;99.90;;;;;;5064606;28;20221;-66
2022/08/10 01:51:25;;;;;;;6.13;5.73;;;18.40;99.90;;;;;;5054740;28;20260;-63
2022/08/10 01:54:03;;;;;;;6.67;6.17;;;18.30;99.90;;;;;;5067848;28;20207;-65
2022/08/10 01:56:32;;;;;;;6.80;5.63;;;18.30;99.90;;;;;;5066909;28;20202;-64
2022/08/10 01:59:06;;;;;;;6.07;5.57;;;18.30;99.90;;;;;;5070132;28;20178;-64
2022/08/10 02:01:43;;;;;;;5.40;5.10;;;18.20;99.90;;;;;;5054727;28;20185;-65
2022/08/10 02:04:11;;;;;;;5.70;5.20;;;18.20;99.90;;;;;;5056790;28;20272;-65
2022/08/10 02:06:44;;;;;;;6.43;5.43;;;18.20;99.90;;;;;;5065141;28;20705;-64
2022/08/10 02:09:14;;;;;;;4.83;4.53;;;18.20;99.90;;;;;;5070334;28;20182;-65
2022/08/10 02:11:40;;;;;;;5.50;5.10;;;18.20;99.90;;;;;;5055114;28;20635;-64
2022/08/10 02:14:08;;;;;;;6.27;5.93;;;18.20;99.90;;;;;;5074254;28;20181;-65
2022/08/10 02:16:37;;;;;;;4.93;4.50;;;18.10;99.90;;;;;;5066295;28;20678;-65
2022/08/10 02:19:04;;;;;;;6.20;5.80;;;18.10;99.90;;;;;;5063638;28;20582;-64
2022/08/10 02:21:30;;;;;;;6.53;6.10;;;18.10;99.90;;;;;;5061568;28;20178;-64
2022/08/10 02:23:58;;;;;;;6.20;5.80;;;18.20;99.90;;;;;;5071680;28;20185;-65
2022/08/10 02:26:26;;;;;;;8.27;7.77;;;18.10;99.90;;;;;;5060594;28;20268;-65
2022/08/10 02:28:53;;;;;;;4.93;4.63;;;18.00;99.90;;;;;;5060631;28;20186;-64
2022/08/10 02:31:22;;;;;;;5.60;5.30;;;18.00;99.90;;;;;;5054776;28;20253;-65
2022/08/10 02:33:49;;;;;;;6.30;5.80;;;18.00;99.90;;;;;;5067032;28;20612;-65
2022/08/10 02:36:16;;;;;;;5.67;5.27;;;17.90;99.90;;;;;;5065431;28;20215;-65
2022/08/10 02:38:52;;;;;;;7.03;5.10;;;17.90;99.90;;;;;;5055643;28;20248;-64
2022/08/10 02:41:36;;;;;;;6.17;5.83;;;17.80;99.90;;;;;;5054961;28;20167;-64
2022/08/10 02:44:06;;;;;;;5.90;5.47;;;17.80;99.90;;;;;;5073603;28;20193;-65
2022/08/10 02:46:48;;;;;;;6.30;5.90;;;17.80;99.90;;;;;;5065371;28;20289;-65
2022/08/10 02:49:34;;;;;;;5.53;5.13;;;17.90;99.90;;;;;;5058045;28;20268;-65
2022/08/10 02:52:23;;;;;;;5.50;5.10;;;17.80;99.90;;;;;;5057024;28;20663;-65
2022/08/10 02:55:02;;;;;;;6.63;6.13;;;17.80;99.90;;;;;;5066317;28;20170;-65
2022/08/10 02:57:32;;;;;;;6.13;5.53;;;17.70;99.90;;;;;;5064223;28;20228;-64
2022/08/10 03:00:02;;;;;;;5.83;5.53;;;17.60;99.90;;;;;;5059319;28;20281;-63
2022/08/10 03:02:33;;;;;;;5.40;4.97;;;17.60;99.90;;;;;;5055992;28;20261;-63
2022/08/10 03:05:10;;;;;;;9.43;6.47;;;17.60;99.90;;;;;;5073357;28;20221;-65
2022/08/10 03:08:00;;;;;;;8.37;7.67;;;17.50;99.90;;;;;;5065037;28;20740;-66
2022/08/10 03:10:30;;;;;;;7.03;6.30;;;17.50;99.90;;;;;;5056708;28;20717;-64
2022/08/10 03:12:59;;;;;;;7.90;7.40;;;17.40;99.90;;;;;;5066532;28;20255;-64
2022/08/10 03:15:28;;;;;;;7.50;7.07;;;17.40;99.90;;;;;;5064476;28;20224;-64
2022/08/10 03:17:55;;;;;;;6.60;5.97;;;17.30;99.90;;;;;;5054092;28;20559;-65
2022/08/10 03:20:22;;;;;;;6.17;5.77;;;17.40;99.90;;;;;;5053934;28;20636;-66
2022/08/10 03:22:52;;;;;;;11.17;6.40;;;17.30;99.90;;;;;;5072323;28;20224;-65
2022/08/10 03:25:21;;;;;;;7.20;6.60;;;17.20;99.90;;;;;;5057716;28;20178;-64
2022/08/10 03:27:48;;;;;;;6.47;6.00;;;17.20;99.90;;;;;;5061284;28;20199;-67
2022/08/10 03:30:14;;;;;;;8.53;7.83;;;17.20;99.90;;;;;;5059480;28;20185;-66
2022/08/10 03:32:42;;;;;;;10.20;9.40;;;17.20;99.90;;;;;;5070544;28;20205;-66
2022/08/10 03:35:08;;;;;;;9.30;8.80;;;17.20;99.90;;;;;;5053160;28;20174;-66
2022/08/10 03:37:34;;;;;;;9.57;9.03;;;17.20;99.90;;;;;;5068817;28;20213;-66
2022/08/10 03:40:00;;;;;;;10.03;9.43;;;17.20;99.90;;;;;;5065063;28;20186;-65
2022/08/10 03:42:27;;;;;;;9.23;8.37;;;17.10;99.90;;;;;;5065619;28;20526;-66
2022/08/10 03:44:54;;;;;;;6.87;6.47;;;17.10;99.90;;;;;;5055379;28;20186;-66
2022/08/10 03:47:22;;;;;;;6.70;6.30;;;17.00;99.90;;;;;;5058373;28;20222;-66
2022/08/10 03:49:49;;;;;;;8.20;6.20;;;17.00;99.90;;;;;;5069363;28;20190;-66
2022/08/10 03:52:16;;;;;;;7.13;6.13;;;17.00;99.90;;;;;;5059350;28;20239;-66
2022/08/10 03:54:43;;;;;;;6.20;5.80;;;16.90;99.90;;;;;;5061423;28;20227;-67
2022/08/10 03:57:09;;;;;;;6.80;6.20;;;16.80;99.90;;;;;;5068526;28;20293;-66
2022/08/10 03:59:36;;;;;;;7.57;7.07;;;16.80;99.90;;;;;;5060603;28;20186;-66
2022/08/10 04:02:07;;;;;;;7.23;6.60;;;16.70;99.90;;;;;;5072131;28;20185;-66
2022/08/10 04:04:33;;;;;;;7.40;6.80;;;16.70;99.90;;;;;;5056930;28;20175;-67
2022/08/10 04:06:59;;;;;;;6.87;6.47;;;16.60;99.90;;;;;;5063267;28;20740;-66
2022/08/10 04:09:28;;;;;;;8.00;7.40;;;16.60;99.90;;;;;;5066216;28;20178;-66
2022/08/10 04:11:53;;;;;;;7.27;6.77;;;16.50;99.90;;;;;;5054399;28;20679;-65
2022/08/10 04:14:19;;;;;;;6.10;5.70;;;16.50;99.90;;;;;;5072080;28;20217;-65
2022/08/10 04:16:44;;;;;;;6.23;5.77;;;16.40;99.90;;;;;;5055299;28;20675;-66
2022/08/10 04:19:11;;;;;;;7.50;6.90;;;16.40;99.90;;;;;;5064384;28;20216;-66
2022/08/10 04:21:41;;;;;;;6.90;6.40;;;16.40;99.90;;;;;;5064078;28;20627;-66
2022/08/10 04:24:10;;;;;;;6.43;5.93;;;16.30;99.90;;;;;;5068575;28;20190;-64
2022/08/10 04:26:37;;;;;;;6.67;6.17;;;16.30;99.90;;;;;;5054753;28;20219;-66
2022/08/10 04:29:02;;;;;;;6.40;6.00;;;16.30;99.90;;;;;;5059416;28;20183;-66
2022/08/10 04:31:31;;;;;;;6.57;5.97;;;16.30;99.90;;;;;;5066009;28;20190;-66
2022/08/10 04:33:57;;;;;;;6.87;6.43;;;16.30;99.90;;;;;;5061930;28;20214;-65
2022/08/10 04:36:24;;;;;;;8.87;8.23;;;16.30;99.90;;;;;;5057426;28;20561;-65
2022/08/10 04:38:52;;;;;;;10.07;7.83;;;16.30;99.90;;;;;;5071104;28;20182;-65
2022/08/10 04:41:18;;;;;;;7.97;6.23;;;16.30;99.90;;;;;;5064218;28;20660;-65
2022/08/10 04:43:44;;;;;;;8.00;6.27;;;16.30;99.90;;;;;;5055726;28;20222;-65
2022/08/10 04:46:10;;;;;;;10.13;6.07;;;16.40;99.90;;;;;;5062554;28;20206;-65
2022/08/10 04:48:36;;;;;;;6.80;6.17;;;16.40;99.90;;;;;;5065614;28;20190;-65
2022/08/10 04:51:02;;;;;;;6.47;6.07;;;16.40;99.90;;;;;;5053137;28;20174;-64
2022/08/10 04:53:28;;;;;;;7.77;7.07;;;16.50;99.90;;;;;;5071155;28;20270;-64
2022/08/10 04:55:53;;;;;;;7.00;6.50;;;16.60;99.90;;;;;;5055019;28;20198;-64
2022/08/10 04:58:19;;;;;;;6.90;6.40;;;16.70;99.90;;;;;;5063323;28;20619;-64
2022/08/10 05:00:44;;;;;;;7.27;6.67;;;16.80;99.90;;;;;;5064420;28;20187;-65
2022/08/10 05:03:10;;;;;;;8.00;6.13;;;16.90;99.90;;;;;;5067931;28;20640;-66
2022/08/10 05:05:36;;;;;;;7.53;7.03;;;17.00;99.90;;;;;;5051547;28;20210;-64
2022/08/10 05:08:01;;;;;;;6.53;6.03;;;17.10;99.90;;;;;;5066881;28;20206;-65
2022/08/10 05:10:27;;;;;;;6.80;6.30;;;17.20;99.90;;;;;;5059059;28;20275;-64
2022/08/10 05:12:52;;;;;;;6.73;6.07;;;17.30;99.90;;;;;;5058899;28;20182;-65
2022/08/10 05:15:18;;;;;;;7.27;6.53;;;17.20;99.90;;;;;;5054305;28;20201;-65
2022/08/10 05:17:44;;;;;;;6.53;6.03;;;17.20;99.90;;;;;;5070945;28;20644;-66
2022/08/10 05:20:11;;;;;;;6.27;5.67;;;17.30;99.90;;;;;;5053633;28;20183;-64
2022/08/10 05:22:43;;;;;;;6.17;5.70;;;17.40;99.90;;;;;;5064485;28;20224;-65
2022/08/10 05:25:18;;;;;;;6.43;5.87;;;17.50;99.90;;;;;;5061596;28;20608;-65
2022/08/10 05:27:46;;;;;;;7.17;6.03;;;17.70;99.90;;;;;;5065599;28;20217;-65
2022/08/10 05:30:18;;;;;;;6.70;5.97;;;17.80;99.90;;;;;;5051919;28;20206;-65
2022/08/10 05:32:44;;;;;;;8.83;5.93;;;17.90;99.90;;;;;;5071066;28;20170;-65
2022/08/10 05:35:10;;;;;;;5.53;5.10;;;18.00;99.90;;;;;;5061815;28;20185;-65
2022/08/10 05:37:36;;;;;;;5.80;5.40;;;18.00;99.90;;;;;;5062944;28;20210;-65
2022/08/10 05:40:04;;;;;;;6.47;6.00;;;18.20;99.90;;;;;;5063474;28;20186;-65
2022/08/10 05:42:30;;;;;;;9.07;6.53;;;18.20;99.90;;;;;;5053929;28;20243;-65
2022/08/10 05:44:56;;;;;;;6.13;5.70;;;18.30;99.90;;;;;;5070454;28;20182;-65
2022/08/10 05:47:22;;;;;;;6.63;6.23;;;18.50;99.90;;;;;;5052836;28;20214;-65
2022/08/10 05:49:48;;;;;;;6.83;4.70;;;18.70;99.90;;;;;;5063379;28;20213;-65
2022/08/10 05:52:16;;;;;;;5.70;4.90;;;18.90;99.90;;;;;;5062843;28;20194;-65
2022/08/10 05:54:42;;;;;;;4.90;4.50;;;19.20;99.90;;;;;;5046290;28;20186;-65
2022/08/10 05:57:08;;;;;;;5.37;4.83;;;19.30;99.90;;;;;;5069306;28;20209;-65
2022/08/10 05:59:38;;;;;;;7.33;4.87;;;19.70;99.90;;;;;;5062251;28;20184;-65
2022/08/10 06:02:06;;;;;;;5.30;4.80;;;19.80;99.90;;;;;;5056596;28;20245;-65
2022/08/10 06:04:41;;;;;;;5.18;4.78;;;20.00;99.90;;;;;;5058848;28;20640;-65
2022/08/10 06:07:10;;;;;;;5.73;5.23;;;20.10;99.90;;;;;;5057136;28;20693;-65
2022/08/10 06:09:37;;;;;;;6.03;5.53;;;20.20;99.90;;;;;;5068483;28;20239;-65
2022/08/10 06:12:05;;;;;;;5.80;4.93;;;20.30;99.90;;;;;;5060115;28;20178;-65
2022/08/10 06:17:17;;;;;;;6.05;5.55;;;20.70;99.90;;;;;;5045995;28;20221;-65
2022/08/10 06:19:43;;;;;;;4.90;4.50;;;21.10;99.90;;;;;;5062586;28;20704;-65
2022/08/10 06:22:09;;;;;;;7.72;5.22;;;21.40;99.90;;;;;;5061385;28;20314;-66
2022/08/10 06:24:39;;;;;;;5.32;3.80;;;21.90;99.90;;;;;;5061657;28;20193;-66
2022/08/10 06:27:05;;;;;;;4.90;3.92;;;22.50;99.90;;;;;;5064284;28;20214;-65
2022/08/10 06:29:33;;;;;;;5.95;4.57;;;23.00;99.90;;;;;;5062558;28;20261;-67
2022/08/10 06:32:01;;;;;;;5.93;4.63;;;23.50;99.90;;;;;;5050922;28;20191;-66
2022/08/10 06:34:31;;;;;;;5.50;5.07;;;23.90;99.90;;;;;;5051770;28;20636;-65
2022/08/10 06:37:01;;;;;;;7.18;5.60;;;24.20;99.90;;;;;;5067088;28;20221;-66
2022/08/10 06:39:27;;;;;;;4.80;4.40;;;24.50;99.90;;;;;;5057840;28;20175;-64
2022/08/10 06:42:04;;;;;;;5.50;5.10;;;24.90;99.90;;;;;;5058753;28;20185;-65
2022/08/10 06:44:36;;;;;;;5.35;4.28;;;25.20;99.90;;;;;;5045149;28;20174;-66
2022/08/10 06:47:04;;;;;;;4.88;3.80;;;25.50;99.90;;;;;;5050997;28;20214;-67
2022/08/10 06:49:31;;;;;;;5.22;4.72;;;25.60;99.90;;;;;;5070217;28;20166;-66
2022/08/10 06:52:01;;;;;;;7.60;5.45;;;25.90;99.90;;;;;;5053738;28;20550;-65
2022/08/10 06:54:30;;;;;;;4.32;3.90;;;26.10;99.90;;;;;;5056880;28;20200;-66
2022/08/10 06:56:57;;;;;;;6.38;3.95;;;26.30;99.90;;;;;;5066642;28;20556;-66
2022/08/10 06:59:28;;;;;;;5.32;3.97;;;26.60;99.90;;;;;;5056143;28;20181;-67
2022/08/10 07:02:02;;;;;;;4.20;3.90;;;26.90;99.90;;;;;;5064825;28;20178;-65
2022/08/10 07:04:34;;;;;;;5.03;4.00;;;27.10;99.90;;;;;;5054545;28;20175;-65
2022/08/10 07:07:03;;;;;;;6.70;4.95;;;27.10;99.90;;;;;;5068120;28;20198;-67
2022/08/10 07:09:30;;;;;;;4.60;4.28;;;27.40;99.90;;;;;;5063003;28;20207;-66
2022/08/10 07:11:58;;;;;;;6.90;5.80;;;27.60;99.90;;;;;;5059592;28;20262;-65
2022/08/10 07:14:26;;;;;;;7.90;4.05;;;27.60;99.90;;;;;;5072411;28;20445;-66
2022/08/10 07:16:53;;;;;;;3.90;3.70;;;27.80;99.90;;;;;;5053395;28;20198;-65
2022/08/10 07:19:20;;;;;;;4.95;4.32;;;28.20;99.90;;;;;;5052288;28;20262;-67
2022/08/10 07:21:47;;;;;;;6.00;5.10;;;28.50;99.90;;;;;;5047844;28;20194;-65
2022/08/10 07:24:14;;;;;;;6.13;5.65;;;28.90;99.90;;;;;;5062012;28;20186;-65
2022/08/10 07:26:49;;;;;;;5.90;5.50;;;29.10;99.90;;;;;;5068872;28;20201;-67
2022/08/10 07:29:17;;;;;;;8.48;5.68;;;29.20;99.90;;;;;;5053717;28;20229;-66
2022/08/10 07:31:43;;;;;;;4.80;4.47;;;29.40;99.90;;;;;;5072727;28;20201;-66
2022/08/10 07:34:10;;;;;;;6.05;3.63;;;29.80;99.90;;;;;;5064408;28;20247;-65
2022/08/10 07:36:38;;;;;;;4.20;3.60;;;30.10;99.90;;;;;;5064301;28;20213;-66
2022/08/10 07:39:06;;;;;;;4.28;3.88;;;30.30;99.90;;;;;;5066267;28;20190;-66
2022/08/10 07:41:33;;;;;;;3.85;3.53;;;30.30;99.90;;;;;;5054768;28;20183;-65
2022/08/10 07:44:03;;;;;;;4.30;4.00;;;30.20;99.90;;;;;;5072278;28;20197;-66
2022/08/10 07:46:32;;;;;;;4.45;4.07;;;30.10;99.90;;;;;;5063404;28;20552;-65
2022/08/10 07:49:13;;;;;;;4.28;3.45;;;30.00;99.90;;;;;;5065517;28;20637;-66
2022/08/10 07:51:39;;;;;;;4.18;3.60;;;29.70;99.90;;;;;;5062850;28;20194;-64
2022/08/10 07:54:07;;;;;;;4.80;4.50;;;29.60;99.90;;;;;;5057056;28;20174;-67
2022/08/10 07:56:36;;;;;;;5.38;4.28;;;29.70;99.90;;;;;;5063259;28;20563;-65
2022/08/10 07:59:14;;;;;;;6.38;4.80;;;29.90;99.90;;;;;;5072271;28;20185;-65
2022/08/10 08:01:45;;;;;;;4.03;3.72;;;30.30;99.90;;;;;;5056094;28;20204;-66
2022/08/10 08:04:13;;;;;;;6.60;3.83;;;30.70;99.90;;;;;;5064078;28;20186;-67
2022/08/10 08:06:41;;;;;;;6.68;3.97;;;31.10;99.90;;;;;;5064854;28;20210;-64
2022/08/10 08:09:08;;;;;;;3.72;3.40;;;31.30;99.90;;;;;;5067645;28;20175;-64
2022/08/10 08:11:35;;;;;;;3.75;3.15;;;31.60;99.90;;;;;;5052562;28;20187;-64
2022/08/10 08:14:03;;;;;;;3.75;3.45;;;31.80;99.90;;;;;;5068229;28;20545;-66
2022/08/10 08:16:30;;;;;;;6.18;3.75;;;31.90;99.90;;;;;;5059150;28;20225;-65
2022/08/10 08:18:57;;;;;;;5.57;4.25;;;32.00;98.20;;;;;;5053625;28;20179;-65
2022/08/10 08:21:24;;;;;;;5.22;4.82;;;32.20;97.60;;;;;;5055910;28;20186;-65
2022/08/10 08:23:51;;;;;;;3.63;3.40;;;32.30;98.50;;;;;;5059314;28;20559;-64
2022/08/10 08:26:20;;;;;;;5.18;4.38;;;32.40;98.20;;;;;;5070215;28;20296;-65
2022/08/10 08:28:48;;;;;;;6.10;3.88;;;32.30;95.90;;;;;;5070301;28;20180;-65
2022/08/10 08:31:14;;;;;;;4.75;3.72;;;32.30;95.30;;;;;;5063787;28;20236;-65
2022/08/10 08:33:43;;;;;;;5.25;3.90;;;32.20;95.00;;;;;;5060052;28;20515;-65
2022/08/10 08:36:13;;;;;;;4.40;4.00;;;32.30;94.50;;;;;;5067380;28;20202;-64
2022/08/10 08:38:41;;;;;;;3.95;3.65;;;32.50;94.70;;;;;;5071111;28;20174;-65
2022/08/10 08:41:40;;;;;;;6.38;5.88;;;33.00;95.10;;;;;;5056865;28;20181;-65
2022/08/10 08:44:32;;;;;;;3.80;3.40;;;33.50;92.70;;;;;;5067167;28;20200;-65
2022/08/10 08:47:18;;;;;;;3.92;3.05;;;33.90;90.50;;;;;;5058331;28;20210;-65
2022/08/10 08:50:06;;;;;;;3.35;3.13;;;33.80;87.20;;;;;;5062290;28;20174;-65
2022/08/10 08:52:53;;;;;;;15.40;3.88;;;33.50;86.80;;;;;;5062665;28;20494;-66
2022/08/10 08:55:42;;;;;;;6.03;3.00;;;33.60;87.30;;;;;;5059670;28;20196;-66
2022/08/10 08:58:36;;;;;;;3.83;3.38;;;33.70;87.00;;;;;;5054773;28;20174;-67
2022/08/10 09:01:31;;;;;;;6.18;3.25;;;33.90;83.50;;;;;;5047328;28;20553;-66
2022/08/10 09:04:08;;;;;;;6.82;4.00;;;34.20;83.50;;;;;;5067056;28;20174;-66
2022/08/10 09:07:09;;;;;;;4.45;3.50;;;34.20;77.40;;;;;;5060594;28;20198;-66
2022/08/10 09:10:00;;;;;;;6.07;3.55;;;34.40;85.80;;;;;;5059496;28;20197;-66
2022/08/10 09:12:25;;;;;;;3.40;3.10;;;34.90;77.70;;;;;;5058176;28;20211;-66
2022/08/10 09:14:59;;;;;;;3.92;2.95;;;35.20;76.20;;;;;;5067093;28;20175;-65
2022/08/10 09:17:37;;;;;;;3.55;3.30;;;35.40;75.40;;;;;;5051663;28;20205;-65
2022/08/10 09:20:09;;;;;;;7.05;4.63;;;35.80;79.00;;;;;;5047956;28;20174;-65
2022/08/10 09:22:51;;;;;;;4.88;4.03;;;36.20;80.00;;;;;;5068644;28;20184;-64
2022/08/10 09:25:19;;;;;;;5.35;4.30;;;36.60;77.30;;;;;;5046210;28;20183;-65
2022/08/10 09:27:47;;;;;;;4.25;3.50;;;36.90;77.10;;;;;;5059196;28;20202;-67
2022/08/10 09:30:27;;;;;;;5.63;3.83;;;36.90;77.00;;;;;;5069558;28;20186;-66
2022/08/10 09:33:27;;;;;;;7.63;3.80;;;37.10;70.30;;;;;;5070132;28;20261;-67
2022/08/10 09:36:27;;;;;;;4.15;3.70;;;37.20;72.20;;;;;;5014852;28;20234;-67
2022/08/10 09:39:09;;;;;;;4.82;4.35;;;37.50;69.20;;;;;;5031713;28;20178;-65
2022/08/10 09:41:47;;;;;;;3.58;3.28;;;36.70;66.80;;;;;;5044468;28;20249;-64
2022/08/10 09:44:44;;;;;;;5.80;4.05;;;36.30;71.60;;;;;;5051363;28;20539;-66
2022/08/10 09:47:26;;;;;;;4.07;3.78;;;36.80;69.50;;;;;;5031294;28;20211;-67
2022/08/10 09:50:20;;;;;;;5.05;4.20;;;37.00;63.20;;;;;;5042540;28;20189;-65
2022/08/10 09:53:04;;;;;;;3.40;3.10;;;36.40;64.70;;;;;;5049793;28;20191;-67
2022/08/10 09:56:02;;;;;;;4.18;3.28;;;36.00;68.50;;;;;;5059549;28;20186;-66
2022/08/10 09:58:45;;;;;;;4.55;4.20;;;35.50;64.30;;;;;;5065038;28;20178;-67
2022/08/10 10:01:24;;;;;;;4.80;3.00;;;35.30;64.50;;;;;;5063559;28;20333;-65
2022/08/10 10:04:14;;;;;;;3.35;3.15;;;35.30;65.10;;;;;;5051850;28;20284;-67
2022/08/10 10:07:00;;;;;;;3.50;3.08;;;35.50;63.20;;;;;;5069742;28;20217;-67
2022/08/10 10:09:49;;;;;;;8.15;3.25;;;35.60;62.20;;;;;;5053531;28;20273;-67
2022/08/10 10:12:46;;;;;;;4.47;3.42;;;35.50;64.30;;;;;;5044614;28;20175;-66
2022/08/10 10:15:23;;;;;;;3.35;3.15;;;35.30;63.30;;;;;;5050808;28;20175;-67
2022/08/10 10:18:06;;;;;;;4.15;3.53;;;34.80;60.80;;;;;;5066953;28;20186;-65
2022/08/10 10:20:32;;;;;;;4.90;3.90;;;34.70;60.40;;;;;;5069029;28;20182;-67
2022/08/10 10:23:24;;;;;;;4.43;3.90;;;34.80;59.40;;;;;;5060197;28;20247;-66
2022/08/10 10:25:58;;;;;;;4.38;3.65;;;34.80;59.30;;;;;;5058271;28;20197;-66
2022/08/10 10:28:52;;;;;;;4.22;3.92;;;34.80;59.40;;;;;;5072774;28;20199;-66
2022/08/10 10:31:37;;;;;;;3.83;3.42;;;35.00;65.90;;;;;;5046411;28;20171;-67
2022/08/10 10:34:16;;;;;;;3.53;3.10;;;35.40;61.50;;;;;;5054312;28;20182;-67
2022/08/10 10:36:44;;;;;;;3.50;3.03;;;35.50;63.50;;;;;;5069439;28;20206;-66
2022/08/10 10:39:15;;;;;;;4.38;3.40;;;35.60;60.30;;;;;;5062749;28;20181;-65
2022/08/10 10:42:07;;;;;;;3.88;3.38;;;35.80;59.50;;;;;;5053757;28;20688;-67
2022/08/10 10:45:00;;;;;;;3.50;3.20;;;35.60;58.70;;;;;;5048860;28;20193;-65
2022/08/10 10:47:50;;;;;;;6.43;3.30;;;35.50;59.00;;;;;;5057415;28;20270;-66
2022/08/10 10:50:40;;;;;;;4.53;3.42;;;35.70;59.70;;;;;;5056648;28;20175;-66
2022/08/10 10:53:14;;;;;;;5.93;3.28;;;35.60;58.60;;;;;;5070122;28;20223;-67
2022/08/10 10:56:14;;;;;;;3.40;2.80;;;35.40;59.70;;;;;;5060311;28;20253;-67
2022/08/10 10:59:10;;;;;;;5.10;3.55;;;35.70;58.10;;;;;;5064914;28;20174;-67
2022/08/10 11:01:46;;;;;;;4.22;3.15;;;36.00;56.60;;;;;;5061771;28;20213;-66
2022/08/10 11:04:35;;;;;;;4.18;3.47;;;36.40;58.10;;;;;;5055664;28;20206;-66
2022/08/10 11:07:16;;;;;;;4.18;3.85;;;36.70;57.40;;;;;;5054361;28;20247;-66
2022/08/10 11:09:47;;;;;;;5.18;4.03;;;36.80;59.20;;;;;;5070709;28;20694;-66
2022/08/10 11:12:16;;;;;;;3.70;3.03;;;37.50;56.50;;;;;;5054412;28;20175;-66
2022/08/10 11:15:03;;;;;;;3.40;3.10;;;37.30;58.30;;;;;;5071474;28;20174;-66
2022/08/10 11:17:33;;;;;;;4.60;3.80;;;37.20;54.70;;;;;;5056397;28;20218;-65
2022/08/10 11:20:16;;;;;;;5.13;3.65;;;37.20;55.20;;;;;;5060226;28;20376;-67
2022/08/10 11:23:10;;;;;;;3.95;3.70;;;37.30;54.10;;;;;;5063826;28;20178;-66
2022/08/10 11:25:41;;;;;;;8.68;3.30;;;37.30;57.30;;;;;;5064903;28;20240;-66
2022/08/10 11:28:13;;;;;;;4.38;3.00;;;37.30;55.20;;;;;;5068363;28;20256;-66
2022/08/10 11:30:48;;;;;;;4.05;3.80;;;37.30;55.80;;;;;;5054934;28;20560;-67
2022/08/10 11:33:23;;;;;;;5.07;3.70;;;37.70;55.30;;;;;;5073359;28;20169;-66
2022/08/10 11:36:17;;;;;;;3.63;3.30;;;37.70;52.20;;;;;;5054529;28;20277;-66
2022/08/10 11:38:54;;;;;;;4.57;3.80;;;37.20;53.60;;;;;;5061208;28;20316;-65
2022/08/10 11:41:19;;;;;;;4.68;3.72;;;36.70;53.30;;;;;;5061972;28;20702;-67
2022/08/10 11:44:02;;;;;;;6.60;3.47;;;36.80;53.30;;;;;;5053534;28;20179;-67
2022/08/10 11:46:35;;;;;;;3.45;3.25;;;37.00;56.00;;;;;;5060454;28;20555;-66
2022/08/10 11:49:42;;;;;;;3.65;3.45;;;37.20;53.10;;;;;;5063067;28;20560;-66
2022/08/10 11:52:52;;;;;;;3.25;3.05;;;37.80;54.70;;;;;;5039225;28;20345;-66
2022/08/10 11:55:20;;;;;;;5.68;3.20;;;38.00;51.90;;;;;;5056547;28;20273;-66
2022/08/10 11:57:48;;;;;;;5.88;2.55;;;37.90;49.80;;;;;;5053949;28;20591;-66
2022/08/10 12:00:15;;;;;;;3.08;2.83;;;37.80;51.00;;;;;;5073060;28;20179;-67
2022/08/10 12:02:46;;;;;;;3.88;2.85;;;37.80;49.60;;;;;;5063757;28;20205;-67
2022/08/10 12:05:22;;;;;;;5.25;2.40;;;37.90;50.50;;;;;;5047354;28;20199;-66
2022/08/10 12:07:54;;;;;;;2.65;2.45;;;38.20;50.40;;;;;;5043684;28;20201;-66
2022/08/10 12:10:23;;;;;;;2.67;2.47;;;38.50;51.70;;;;;;5068176;28;20178;-66
2022/08/10 12:13:10;;;;;;;4.13;2.80;;;38.60;48.00;;;;;;5054547;28;20621;-65
2022/08/10 12:16:00;;;;;;;3.03;2.80;;;38.00;46.60;;;;;;5070766;28;20273;-66
2022/08/10 12:18:32;;;;;;;3.80;2.72;;;38.00;50.10;;;;;;5047273;28;20186;-66
2022/08/10 12:21:04;;;;;;;2.70;2.50;;;37.60;45.80;;;;;;5070261;28;20186;-67
2022/08/10 12:23:47;;;;;;;4.20;3.20;;;37.50;46.50;;;;;;5069882;28;20235;-66
2022/08/10 12:26:23;;;;;;;3.10;2.90;;;37.40;46.80;;;;;;5061581;28;20553;-66
2022/08/10 12:29:03;;;;;;;4.00;3.20;;;37.60;46.20;;;;;;5061073;28;20171;-68
2022/08/10 12:31:42;;;;;;;3.08;2.88;;;37.60;46.00;;;;;;5053603;28;20177;-67
2022/08/10 12:34:21;;;;;;;4.45;2.83;;;37.50;49.00;;;;;;5068399;28;20624;-67
2022/08/10 12:37:11;;;;;;;3.10;2.90;;;37.50;45.70;;;;;;5052579;28;20240;-67
2022/08/10 12:39:50;;;;;;;4.65;3.17;;;37.20;48.90;;;;;;5047019;28;20547;-67
2022/08/10 12:42:21;;;;;;;3.55;3.35;;;37.50;47.20;;;;;;5070882;28;20177;-65
2022/08/10 12:45:18;;;;;;;4.35;3.22;;;37.10;45.50;;;;;;5056432;28;20175;-65
2022/08/10 12:47:56;;;;;;;3.17;2.88;;;37.00;47.00;;;;;;5031294;28;20688;-67
2022/08/10 12:50:32;;;;;;;6.45;3.00;;;37.00;45.40;;;;;;5059251;28;20261;-66
2022/08/10 12:53:13;;;;;;;3.83;3.53;;;36.90;47.10;;;;;;5059905;28;20181;-65
2022/08/10 12:55:41;;;;;;;5.07;3.30;;;36.70;45.70;;;;;;5065684;28;20179;-66
2022/08/10 12:58:10;;;;;;;3.88;3.58;;;36.70;45.60;;;;;;5059743;28;20636;-67
2022/08/10 13:00:37;;;;;;;4.65;4.07;;;36.60;48.40;;;;;;5051920;28;20243;-64
2022/08/10 13:03:05;;;;;;;3.50;3.20;;;36.70;46.60;;;;;;5053143;28;20182;-64
2022/08/10 13:05:32;;;;;;;2.97;2.78;;;36.60;47.80;;;;;;5063863;28;20259;-65
2022/08/10 13:10:53;;;;;;;4.88;3.33;;;37.60;47.10;;;;;;5065634;28;20276;-65
2022/08/10 13:13:26;;;;;;;3.67;3.38;;;37.90;46.90;;;;;;5067791;28;20199;-65
2022/08/10 13:15:52;;;;;;;3.60;3.05;;;37.50;45.80;;;;;;5051792;28;20212;-66
2022/08/10 13:18:43;;;;;;;3.38;3.17;;;37.10;45.10;;;;;;5067382;28;20178;-66
2022/08/10 13:21:13;;;;;;;4.82;3.15;;;37.00;44.90;;;;;;5060401;28;20183;-67
2022/08/10 13:23:53;;;;;;;4.63;2.80;;;37.00;45.10;;;;;;5058768;28;20640;-65